Spring Lake Heights, New Jersey
Current Conditions -  °F | °C
As of 8:55 AM on Monday 20 Oct 2014 (Local Time) from KBLM Reporting Station
Clear Clear  
Wind Chill:   Ceiling: Unl
Heat Index:   Visibility: 10mi
Dew Point: -3°   Wind: 0mph
Humidity: 53%   Direction: NA
Pressure: 30.13"   Gusts: NA
Location:  40.1528°N, 74.0364°W
Report Text: KBLM 201255Z AUTO 00000KT 10SM CLR 06/M03 A3013 RMK AO1
Loading
Personal Weather Stations






























Interactive Weather Map
Tropical Storm Tracking
New forecast layout! Learn more

10-Day Weather Forecast

Advertisements
Track Severe Weather on mobile